la Nucia, Spain
Current Conditions -  °F | °C
As of 6:30 AM on Thursday 23 Oct 2014 (Local Time) from LEAL Reporting Station
Clear Clear  
Wind Chill: 59°   Ceiling: Unl
Heat Index: 59°   Visibility: 6mi
Dew Point: 50°   Wind: 3mph
Humidity: 72%   Direction: 300°WNW
Pressure: 30.18"   Gusts: NA
Location:  38.61°N, 0.13°W
Report Text: LEAL 230430Z 30003KT 270V330 CAVOK 15/10 Q1022 NOSIG
Loading
Personal Weather Stations






























Interactive Weather Map
Tropical Storm Tracking
New forecast layout! Learn more

10-Day Weather Forecast

Advertisements
Track Severe Weather on mobile